sensor_id;sensor_type;location;lat;lon;timestamp;P1;durP1;ratioP1;P2;durP2;ratioP2
59169;SDS011;52474;52.236;5.114;2023-09-07T00:00:36;6.57;;;4.70;;
59169;SDS011;52474;52.236;5.114;2023-09-07T00:03:02;5.50;;;5.00;;
59169;SDS011;52474;52.236;5.114;2023-09-07T00:05:30;5.78;;;5.18;;
59169;SDS011;52474;52.236;5.114;2023-09-07T00:07:56;7.10;;;5.15;;
59169;SDS011;52474;52.236;5.114;2023-09-07T00:10:22;7.22;;;5.40;;
59169;SDS011;52474;52.236;5.114;2023-09-07T00:12:51;8.60;;;5.95;;
59169;SDS011;52474;52.236;5.114;2023-09-07T00:15:17;7.07;;;5.75;;
59169;SDS011;52474;52.236;5.114;2023-09-07T00:17:44;6.50;;;5.60;;
59169;SDS011;52474;52.236;5.114;2023-09-07T00:20:10;6.68;;;6.00;;
59169;SDS011;52474;52.236;5.114;2023-09-07T00:22:37;7.90;;;5.93;;
59169;SDS011;52474;52.236;5.114;2023-09-07T00:25:03;9.68;;;6.15;;
59169;SDS011;52474;52.236;5.114;2023-09-07T00:27:32;5.93;;;5.32;;
59169;SDS011;52474;52.236;5.114;2023-09-07T00:29:59;7.05;;;5.95;;
59169;SDS011;52474;52.236;5.114;2023-09-07T00:32:25;8.57;;;5.85;;
59169;SDS011;52474;52.236;5.114;2023-09-07T00:34:50;8.48;;;6.53;;
59169;SDS011;52474;52.236;5.114;2023-09-07T00:37:16;6.90;;;6.20;;
59169;SDS011;52474;52.236;5.114;2023-09-07T00:39:41;8.95;;;6.50;;
59169;SDS011;52474;52.236;5.114;2023-09-07T00:42:07;7.07;;;6.38;;
59169;SDS011;52474;52.236;5.114;2023-09-07T00:44:33;7.70;;;6.53;;
59169;SDS011;52474;52.236;5.114;2023-09-07T00:46:59;8.23;;;5.75;;
59169;SDS011;52474;52.236;5.114;2023-09-07T00:49:25;7.55;;;5.63;;
59169;SDS011;52474;52.236;5.114;2023-09-07T00:51:51;6.63;;;5.95;;
59169;SDS011;52474;52.236;5.114;2023-09-07T00:54:18;7.03;;;6.15;;
59169;SDS011;52474;52.236;5.114;2023-09-07T00:56:45;9.20;;;5.72;;
59169;SDS011;52474;52.236;5.114;2023-09-07T00:59:11;7.20;;;6.10;;
59169;SDS011;52474;52.236;5.114;2023-09-07T01:01:38;7.47;;;6.10;;
59169;SDS011;52474;52.236;5.114;2023-09-07T01:04:04;8.68;;;6.53;;
59169;SDS011;52474;52.236;5.114;2023-09-07T01:06:30;6.93;;;6.03;;
59169;SDS011;52474;52.236;5.114;2023-09-07T01:09:03;7.50;;;6.60;;
59169;SDS011;52474;52.236;5.114;2023-09-07T01:11:39;8.75;;;6.20;;
59169;SDS011;52474;52.236;5.114;2023-09-07T01:14:04;8.13;;;6.30;;
59169;SDS011;52474;52.236;5.114;2023-09-07T01:16:31;9.45;;;7.10;;
59169;SDS011;52474;52.236;5.114;2023-09-07T01:19:01;8.35;;;6.20;;
59169;SDS011;52474;52.236;5.114;2023-09-07T01:21:32;7.85;;;6.57;;
59169;SDS011;52474;52.236;5.114;2023-09-07T01:24:01;7.35;;;6.10;;
59169;SDS011;52474;52.236;5.114;2023-09-07T01:26:30;8.88;;;6.30;;
59169;SDS011;52474;52.236;5.114;2023-09-07T01:28:56;7.25;;;5.93;;
59169;SDS011;52474;52.236;5.114;2023-09-07T01:31:21;7.30;;;6.60;;
59169;SDS011;52474;52.236;5.114;2023-09-07T01:33:47;7.63;;;6.45;;
59169;SDS011;52474;52.236;5.114;2023-09-07T01:36:12;7.40;;;6.30;;
59169;SDS011;52474;52.236;5.114;2023-09-07T01:38:38;6.55;;;5.90;;
59169;SDS011;52474;52.236;5.114;2023-09-07T01:41:04;7.55;;;6.30;;
59169;SDS011;52474;52.236;5.114;2023-09-07T01:43:30;8.50;;;6.25;;
59169;SDS011;52474;52.236;5.114;2023-09-07T01:45:55;7.50;;;6.70;;
59169;SDS011;52474;52.236;5.114;2023-09-07T01:48:21;7.70;;;6.82;;
59169;SDS011;52474;52.236;5.114;2023-09-07T01:50:47;10.73;;;7.28;;
59169;SDS011;52474;52.236;5.114;2023-09-07T01:53:13;7.80;;;6.60;;
59169;SDS011;52474;52.236;5.114;2023-09-07T01:55:39;9.40;;;8.27;;
59169;SDS011;52474;52.236;5.114;2023-09-07T01:58:04;8.15;;;6.75;;
59169;SDS011;52474;52.236;5.114;2023-09-07T02:00:30;8.73;;;6.75;;
59169;SDS011;52474;52.236;5.114;2023-09-07T02:02:56;8.10;;;6.85;;
59169;SDS011;52474;52.236;5.114;2023-09-07T02:05:21;9.38;;;7.05;;
59169;SDS011;52474;52.236;5.114;2023-09-07T02:07:47;9.45;;;8.13;;
59169;SDS011;52474;52.236;5.114;2023-09-07T02:10:15;10.48;;;7.50;;
59169;SDS011;52474;52.236;5.114;2023-09-07T02:12:41;8.80;;;6.97;;
59169;SDS011;52474;52.236;5.114;2023-09-07T02:15:06;8.40;;;7.32;;
59169;SDS011;52474;52.236;5.114;2023-09-07T02:17:32;10.50;;;8.10;;
59169;SDS011;52474;52.236;5.114;2023-09-07T02:19:58;9.13;;;7.07;;
59169;SDS011;52474;52.236;5.114;2023-09-07T02:22:25;8.90;;;7.40;;
59169;SDS011;52474;52.236;5.114;2023-09-07T02:24:50;10.52;;;8.15;;
59169;SDS011;52474;52.236;5.114;2023-09-07T02:27:17;12.82;;;9.25;;
59169;SDS011;52474;52.236;5.114;2023-09-07T02:29:42;10.23;;;9.02;;
59169;SDS011;52474;52.236;5.114;2023-09-07T02:32:08;10.75;;;8.35;;
59169;SDS011;52474;52.236;5.114;2023-09-07T02:34:35;10.38;;;8.63;;
59169;SDS011;52474;52.236;5.114;2023-09-07T02:37:02;10.98;;;8.52;;
59169;SDS011;52474;52.236;5.114;2023-09-07T02:39:28;9.02;;;7.93;;
59169;SDS011;52474;52.236;5.114;2023-09-07T02:41:54;9.77;;;7.13;;
59169;SDS011;52474;52.236;5.114;2023-09-07T02:44:20;9.20;;;8.30;;
59169;SDS011;52474;52.236;5.114;2023-09-07T02:46:46;8.85;;;7.28;;
59169;SDS011;52474;52.236;5.114;2023-09-07T02:49:12;10.13;;;6.88;;
59169;SDS011;52474;52.236;5.114;2023-09-07T02:51:39;8.32;;;7.50;;
59169;SDS011;52474;52.236;5.114;2023-09-07T02:54:05;10.52;;;8.00;;
59169;SDS011;52474;52.236;5.114;2023-09-07T02:56:31;11.98;;;8.13;;
59169;SDS011;52474;52.236;5.114;2023-09-07T02:58:57;8.02;;;7.18;;
59169;SDS011;52474;52.236;5.114;2023-09-07T03:01:23;10.63;;;8.18;;
59169;SDS011;52474;52.236;5.114;2023-09-07T03:03:49;10.30;;;8.15;;
59169;SDS011;52474;52.236;5.114;2023-09-07T03:06:16;11.98;;;9.35;;
59169;SDS011;52474;52.236;5.114;2023-09-07T03:08:48;13.25;;;9.27;;
59169;SDS011;52474;52.236;5.114;2023-09-07T03:11:14;9.68;;;8.07;;
59169;SDS011;52474;52.236;5.114;2023-09-07T03:13:40;11.88;;;8.50;;
59169;SDS011;52474;52.236;5.114;2023-09-07T03:16:07;9.73;;;8.63;;
59169;SDS011;52474;52.236;5.114;2023-09-07T03:18:33;9.27;;;8.30;;
59169;SDS011;52474;52.236;5.114;2023-09-07T03:21:00;11.82;;;9.65;;
59169;SDS011;52474;52.236;5.114;2023-09-07T03:23:27;11.85;;;8.15;;
59169;SDS011;52474;52.236;5.114;2023-09-07T03:25:53;12.88;;;9.70;;
59169;SDS011;52474;52.236;5.114;2023-09-07T03:28:19;11.82;;;9.75;;
59169;SDS011;52474;52.236;5.114;2023-09-07T03:30:45;12.65;;;9.50;;
59169;SDS011;52474;52.236;5.114;2023-09-07T03:33:11;10.77;;;8.57;;
59169;SDS011;52474;52.236;5.114;2023-09-07T03:35:37;10.38;;;8.70;;
59169;SDS011;52474;52.236;5.114;2023-09-07T03:38:03;11.32;;;8.88;;
59169;SDS011;52474;52.236;5.114;2023-09-07T03:40:29;10.45;;;8.45;;
59169;SDS011;52474;52.236;5.114;2023-09-07T03:42:55;11.20;;;9.10;;
59169;SDS011;52474;52.236;5.114;2023-09-07T03:45:21;12.07;;;9.57;;
59169;SDS011;52474;52.236;5.114;2023-09-07T03:47:47;9.48;;;8.52;;
59169;SDS011;52474;52.236;5.114;2023-09-07T03:50:15;10.88;;;9.30;;
59169;SDS011;52474;52.236;5.114;2023-09-07T03:52:41;12.10;;;8.68;;
59169;SDS011;52474;52.236;5.114;2023-09-07T03:55:07;11.27;;;9.68;;
59169;SDS011;52474;52.236;5.114;2023-09-07T03:57:33;10.43;;;8.02;;
59169;SDS011;52474;52.236;5.114;2023-09-07T03:59:59;10.95;;;9.10;;
59169;SDS011;52474;52.236;5.114;2023-09-07T04:02:25;11.40;;;8.15;;
59169;SDS011;52474;52.236;5.114;2023-09-07T04:04:51;10.00;;;8.70;;
59169;SDS011;52474;52.236;5.114;2023-09-07T04:07:18;11.10;;;9.38;;
59169;SDS011;52474;52.236;5.114;2023-09-07T04:09:44;10.45;;;9.07;;
59169;SDS011;52474;52.236;5.114;2023-09-07T04:12:11;10.88;;;9.18;;
59169;SDS011;52474;52.236;5.114;2023-09-07T04:14:37;11.93;;;8.23;;
59169;SDS011;52474;52.236;5.114;2023-09-07T04:17:04;11.95;;;9.60;;
59169;SDS011;52474;52.236;5.114;2023-09-07T04:19:30;11.07;;;9.85;;
59169;SDS011;52474;52.236;5.114;2023-09-07T04:21:59;10.63;;;9.52;;
59169;SDS011;52474;52.236;5.114;2023-09-07T04:24:25;11.35;;;9.95;;
59169;SDS011;52474;52.236;5.114;2023-09-07T04:26:53;12.07;;;10.27;;
59169;SDS011;52474;52.236;5.114;2023-09-07T04:29:18;13.18;;;10.20;;
59169;SDS011;52474;52.236;5.114;2023-09-07T04:31:44;12.70;;;9.57;;
59169;SDS011;52474;52.236;5.114;2023-09-07T04:34:10;10.20;;;9.18;;
59169;SDS011;52474;52.236;5.114;2023-09-07T04:36:36;10.90;;;9.63;;
59169;SDS011;52474;52.236;5.114;2023-09-07T04:39:02;10.52;;;9.43;;
59169;SDS011;52474;52.236;5.114;2023-09-07T04:41:29;11.95;;;9.38;;
59169;SDS011;52474;52.236;5.114;2023-09-07T04:43:56;13.07;;;10.80;;
59169;SDS011;52474;52.236;5.114;2023-09-07T04:46:22;13.15;;;9.98;;
59169;SDS011;52474;52.236;5.114;2023-09-07T04:48:48;11.88;;;9.13;;
59169;SDS011;52474;52.236;5.114;2023-09-07T04:51:15;11.40;;;9.90;;
59169;SDS011;52474;52.236;5.114;2023-09-07T04:53:42;12.57;;;9.00;;
59169;SDS011;52474;52.236;5.114;2023-09-07T04:56:08;11.50;;;8.52;;
59169;SDS011;52474;52.236;5.114;2023-09-07T04:58:34;12.57;;;9.27;;
59169;SDS011;52474;52.236;5.114;2023-09-07T05:01:10;10.88;;;9.27;;
59169;SDS011;52474;52.236;5.114;2023-09-07T05:03:38;14.05;;;11.30;;
59169;SDS011;52474;52.236;5.114;2023-09-07T05:06:07;15.02;;;12.25;;
59169;SDS011;52474;52.236;5.114;2023-09-07T05:08:33;15.73;;;10.65;;
59169;SDS011;52474;52.236;5.114;2023-09-07T05:11:01;14.50;;;11.05;;
59169;SDS011;52474;52.236;5.114;2023-09-07T05:13:31;15.65;;;11.27;;
59169;SDS011;52474;52.236;5.114;2023-09-07T05:15:58;13.52;;;11.73;;
59169;SDS011;52474;52.236;5.114;2023-09-07T05:18:26;17.42;;;13.05;;
59169;SDS011;52474;52.236;5.114;2023-09-07T05:20:52;14.50;;;11.38;;
59169;SDS011;52474;52.236;5.114;2023-09-07T05:23:18;14.57;;;11.20;;
59169;SDS011;52474;52.236;5.114;2023-09-07T05:25:46;12.43;;;11.00;;
59169;SDS011;52474;52.236;5.114;2023-09-07T05:28:13;13.77;;;10.63;;
59169;SDS011;52474;52.236;5.114;2023-09-07T05:30:40;12.63;;;10.70;;
59169;SDS011;52474;52.236;5.114;2023-09-07T05:33:08;10.70;;;9.60;;
59169;SDS011;52474;52.236;5.114;2023-09-07T05:35:35;11.00;;;9.90;;
59169;SDS011;52474;52.236;5.114;2023-09-07T05:38:01;13.38;;;9.90;;
59169;SDS011;52474;52.236;5.114;2023-09-07T05:40:27;13.55;;;11.50;;
59169;SDS011;52474;52.236;5.114;2023-09-07T05:42:54;15.43;;;10.85;;
59169;SDS011;52474;52.236;5.114;2023-09-07T05:45:20;12.90;;;11.38;;
59169;SDS011;52474;52.236;5.114;2023-09-07T05:47:46;16.52;;;11.30;;
59169;SDS011;52474;52.236;5.114;2023-09-07T05:50:12;15.73;;;10.98;;
59169;SDS011;52474;52.236;5.114;2023-09-07T05:52:38;15.68;;;10.70;;
59169;SDS011;52474;52.236;5.114;2023-09-07T05:55:04;13.45;;;10.10;;
59169;SDS011;52474;52.236;5.114;2023-09-07T05:57:30;11.40;;;10.00;;
59169;SDS011;52474;52.236;5.114;2023-09-07T05:59:55;11.82;;;9.98;;
59169;SDS011;52474;52.236;5.114;2023-09-07T06:02:21;13.05;;;10.35;;
59169;SDS011;52474;52.236;5.114;2023-09-07T06:04:47;12.18;;;9.57;;
59169;SDS011;52474;52.236;5.114;2023-09-07T06:07:13;13.90;;;10.70;;
59169;SDS011;52474;52.236;5.114;2023-09-07T06:09:39;12.77;;;10.57;;
59169;SDS011;52474;52.236;5.114;2023-09-07T06:12:05;12.23;;;10.00;;
59169;SDS011;52474;52.236;5.114;2023-09-07T06:14:31;15.25;;;10.00;;
59169;SDS011;52474;52.236;5.114;2023-09-07T06:16:57;11.80;;;9.95;;
59169;SDS011;52474;52.236;5.114;2023-09-07T06:19:22;12.32;;;9.15;;
59169;SDS011;52474;52.236;5.114;2023-09-07T06:21:48;13.20;;;10.15;;
59169;SDS011;52474;52.236;5.114;2023-09-07T06:24:14;12.32;;;9.85;;
59169;SDS011;52474;52.236;5.114;2023-09-07T06:26:40;11.60;;;9.27;;
59169;SDS011;52474;52.236;5.114;2023-09-07T06:29:08;11.68;;;9.02;;
59169;SDS011;52474;52.236;5.114;2023-09-07T06:31:34;12.77;;;10.35;;
59169;SDS011;52474;52.236;5.114;2023-09-07T06:33:59;10.02;;;8.65;;
59169;SDS011;52474;52.236;5.114;2023-09-07T06:36:27;12.07;;;10.13;;
59169;SDS011;52474;52.236;5.114;2023-09-07T06:38:53;10.63;;;8.95;;
59169;SDS011;52474;52.236;5.114;2023-09-07T06:41:18;13.68;;;10.00;;
59169;SDS011;52474;52.236;5.114;2023-09-07T06:43:44;12.88;;;9.35;;
59169;SDS011;52474;52.236;5.114;2023-09-07T06:46:10;13.90;;;10.05;;
59169;SDS011;52474;52.236;5.114;2023-09-07T06:48:36;13.75;;;10.25;;
59169;SDS011;52474;52.236;5.114;2023-09-07T06:51:02;13.18;;;10.25;;
59169;SDS011;52474;52.236;5.114;2023-09-07T06:53:30;11.70;;;10.10;;
59169;SDS011;52474;52.236;5.114;2023-09-07T06:55:57;13.20;;;10.18;;
59169;SDS011;52474;52.236;5.114;2023-09-07T07:00:52;14.40;;;9.65;;
59169;SDS011;52474;52.236;5.114;2023-09-07T07:03:18;10.90;;;9.40;;
59169;SDS011;52474;52.236;5.114;2023-09-07T07:05:44;11.52;;;9.05;;
59169;SDS011;52474;52.236;5.114;2023-09-07T07:08:09;12.10;;;9.80;;
59169;SDS011;52474;52.236;5.114;2023-09-07T07:10:35;11.77;;;8.73;;
59169;SDS011;52474;52.236;5.114;2023-09-07T07:13:01;12.90;;;9.18;;
59169;SDS011;52474;52.236;5.114;2023-09-07T07:15:27;12.55;;;9.20;;
59169;SDS011;52474;52.236;5.114;2023-09-07T07:17:52;12.90;;;9.45;;
59169;SDS011;52474;52.236;5.114;2023-09-07T07:20:19;10.20;;;8.52;;
59169;SDS011;52474;52.236;5.114;2023-09-07T07:22:44;10.18;;;8.75;;
59169;SDS011;52474;52.236;5.114;2023-09-07T07:25:13;10.35;;;8.75;;
59169;SDS011;52474;52.236;5.114;2023-09-07T07:27:39;10.80;;;8.40;;
59169;SDS011;52474;52.236;5.114;2023-09-07T07:30:05;10.52;;;8.52;;
59169;SDS011;52474;52.236;5.114;2023-09-07T07:32:31;11.57;;;8.75;;
59169;SDS011;52474;52.236;5.114;2023-09-07T07:34:56;11.23;;;8.57;;
59169;SDS011;52474;52.236;5.114;2023-09-07T07:37:23;12.80;;;8.43;;
59169;SDS011;52474;52.236;5.114;2023-09-07T07:39:49;10.95;;;8.30;;
59169;SDS011;52474;52.236;5.114;2023-09-07T07:42:15;8.73;;;7.82;;
59169;SDS011;52474;52.236;5.114;2023-09-07T07:44:41;8.68;;;7.70;;
59169;SDS011;52474;52.236;5.114;2023-09-07T07:47:07;8.98;;;7.75;;
59169;SDS011;52474;52.236;5.114;2023-09-07T07:49:33;10.65;;;7.93;;
59169;SDS011;52474;52.236;5.114;2023-09-07T07:51:59;10.68;;;7.63;;
59169;SDS011;52474;52.236;5.114;2023-09-07T07:54:26;9.20;;;7.65;;
59169;SDS011;52474;52.236;5.114;2023-09-07T07:56:54;8.70;;;7.80;;
59169;SDS011;52474;52.236;5.114;2023-09-07T07:59:21;10.93;;;7.20;;
59169;SDS011;52474;52.236;5.114;2023-09-07T08:01:46;10.75;;;7.30;;
59169;SDS011;52474;52.236;5.114;2023-09-07T08:04:13;8.10;;;7.28;;
59169;SDS011;52474;52.236;5.114;2023-09-07T08:06:39;8.27;;;7.47;;
59169;SDS011;52474;52.236;5.114;2023-09-07T08:09:04;11.93;;;6.95;;
59169;SDS011;52474;52.236;5.114;2023-09-07T08:11:31;7.80;;;7.10;;
59169;SDS011;52474;52.236;5.114;2023-09-07T08:13:57;7.50;;;6.80;;
59169;SDS011;52474;52.236;5.114;2023-09-07T08:16:23;8.93;;;7.10;;
59169;SDS011;52474;52.236;5.114;2023-09-07T08:18:48;7.38;;;6.70;;
59169;SDS011;52474;52.236;5.114;2023-09-07T08:21:15;8.18;;;7.47;;
59169;SDS011;52474;52.236;5.114;2023-09-07T08:23:42;9.25;;;8.35;;
59169;SDS011;52474;52.236;5.114;2023-09-07T08:26:08;8.98;;;8.13;;
59169;SDS011;52474;52.236;5.114;2023-09-07T08:28:36;8.70;;;7.82;;
59169;SDS011;52474;52.236;5.114;2023-09-07T08:31:02;9.90;;;8.90;;
59169;SDS011;52474;52.236;5.114;2023-09-07T08:33:30;8.80;;;7.85;;
59169;SDS011;52474;52.236;5.114;2023-09-07T08:36:05;10.50;;;7.90;;
59169;SDS011;52474;52.236;5.114;2023-09-07T08:38:31;8.23;;;7.55;;
59169;SDS011;52474;52.236;5.114;2023-09-07T08:41:00;9.30;;;7.28;;
59169;SDS011;52474;52.236;5.114;2023-09-07T08:43:30;7.63;;;6.95;;
59169;SDS011;52474;52.236;5.114;2023-09-07T08:48:51;9.52;;;8.65;;
59169;SDS011;52474;52.236;5.114;2023-09-07T08:51:20;8.38;;;7.57;;
59169;SDS011;52474;52.236;5.114;2023-09-07T08:53:47;7.40;;;6.80;;
59169;SDS011;52474;52.236;5.114;2023-09-07T08:56:14;8.38;;;7.43;;
59169;SDS011;52474;52.236;5.114;2023-09-07T09:01:10;8.70;;;7.95;;
59169;SDS011;52474;52.236;5.114;2023-09-07T09:03:36;9.40;;;7.70;;
59169;SDS011;52474;52.236;5.114;2023-09-07T09:06:02;7.75;;;7.07;;
59169;SDS011;52474;52.236;5.114;2023-09-07T09:08:29;8.30;;;7.68;;
59169;SDS011;52474;52.236;5.114;2023-09-07T09:11:01;9.07;;;8.45;;
59169;SDS011;52474;52.236;5.114;2023-09-07T09:13:31;11.18;;;10.18;;
59169;SDS011;52474;52.236;5.114;2023-09-07T09:15:58;9.57;;;8.77;;
59169;SDS011;52474;52.236;5.114;2023-09-07T09:18:25;10.35;;;9.63;;
59169;SDS011;52474;52.236;5.114;2023-09-07T09:20:52;12.60;;;11.65;;
59169;SDS011;52474;52.236;5.114;2023-09-07T09:23:19;11.60;;;10.82;;
59169;SDS011;52474;52.236;5.114;2023-09-07T09:25:45;13.75;;;12.45;;
59169;SDS011;52474;52.236;5.114;2023-09-07T09:28:13;14.35;;;13.35;;
59169;SDS011;52474;52.236;5.114;2023-09-07T09:30:39;14.02;;;12.52;;
59169;SDS011;52474;52.236;5.114;2023-09-07T09:33:05;14.25;;;13.35;;
59169;SDS011;52474;52.236;5.114;2023-09-07T09:35:31;13.95;;;13.05;;
59169;SDS011;52474;52.236;5.114;2023-09-07T09:38:00;12.13;;;11.32;;
59169;SDS011;52474;52.236;5.114;2023-09-07T09:40:32;11.95;;;11.13;;
59169;SDS011;52474;52.236;5.114;2023-09-07T09:43:01;10.90;;;9.93;;
59169;SDS011;52474;52.236;5.114;2023-09-07T09:45:27;9.70;;;9.10;;
59169;SDS011;52474;52.236;5.114;2023-09-07T09:47:54;10.13;;;9.43;;
59169;SDS011;52474;52.236;5.114;2023-09-07T09:50:25;11.70;;;10.98;;
59169;SDS011;52474;52.236;5.114;2023-09-07T09:52:52;11.27;;;10.48;;
59169;SDS011;52474;52.236;5.114;2023-09-07T09:55:20;11.35;;;10.45;;
59169;SDS011;52474;52.236;5.114;2023-09-07T09:57:47;11.57;;;10.68;;
59169;SDS011;52474;52.236;5.114;2023-09-07T10:00:13;11.70;;;11.10;;
59169;SDS011;52474;52.236;5.114;2023-09-07T10:03:00;9.90;;;9.32;;
59169;SDS011;52474;52.236;5.114;2023-09-07T10:05:29;10.20;;;9.48;;
59169;SDS011;52474;52.236;5.114;2023-09-07T10:08:00;9.68;;;8.80;;
59169;SDS011;52474;52.236;5.114;2023-09-07T10:10:37;12.02;;;10.95;;
59169;SDS011;52474;52.236;5.114;2023-09-07T10:13:03;11.52;;;10.75;;
59169;SDS011;52474;52.236;5.114;2023-09-07T10:15:29;10.88;;;10.27;;
59169;SDS011;52474;52.236;5.114;2023-09-07T10:18:14;11.18;;;10.43;;
59169;SDS011;52474;52.236;5.114;2023-09-07T10:23:37;9.77;;;8.98;;
59169;SDS011;52474;52.236;5.114;2023-09-07T10:26:05;9.07;;;8.38;;
59169;SDS011;52474;52.236;5.114;2023-09-07T10:28:31;11.10;;;10.40;;
59169;SDS011;52474;52.236;5.114;2023-09-07T10:31:01;9.48;;;8.85;;
59169;SDS011;52474;52.236;5.114;2023-09-07T10:33:31;11.23;;;10.45;;
59169;SDS011;52474;52.236;5.114;2023-09-07T10:35:58;10.20;;;9.50;;
59169;SDS011;52474;52.236;5.114;2023-09-07T10:38:24;8.65;;;8.15;;
59169;SDS011;52474;52.236;5.114;2023-09-07T10:40:56;9.70;;;8.90;;
59169;SDS011;52474;52.236;5.114;2023-09-07T10:43:29;10.02;;;9.20;;
59169;SDS011;52474;52.236;5.114;2023-09-07T10:45:57;8.38;;;7.63;;
59169;SDS011;52474;52.236;5.114;2023-09-07T10:48:24;8.35;;;7.70;;
59169;SDS011;52474;52.236;5.114;2023-09-07T10:50:53;11.13;;;10.43;;
59169;SDS011;52474;52.236;5.114;2023-09-07T10:53:28;11.05;;;10.35;;
59169;SDS011;52474;52.236;5.114;2023-09-07T10:55:57;10.25;;;9.55;;
59169;SDS011;52474;52.236;5.114;2023-09-07T10:58:28;9.63;;;8.75;;
59169;SDS011;52474;52.236;5.114;2023-09-07T11:00:54;10.00;;;9.40;;
59169;SDS011;52474;52.236;5.114;2023-09-07T11:03:21;9.38;;;8.65;;
59169;SDS011;52474;52.236;5.114;2023-09-07T11:05:46;10.63;;;9.90;;
59169;SDS011;52474;52.236;5.114;2023-09-07T11:08:14;10.90;;;10.20;;
59169;SDS011;52474;52.236;5.114;2023-09-07T11:10:39;9.90;;;9.30;;
59169;SDS011;52474;52.236;5.114;2023-09-07T11:13:05;10.73;;;9.93;;
59169;SDS011;52474;52.236;5.114;2023-09-07T11:15:32;10.25;;;9.57;;
59169;SDS011;52474;52.236;5.114;2023-09-07T11:18:07;9.57;;;8.77;;
59169;SDS011;52474;52.236;5.114;2023-09-07T11:20:35;9.65;;;8.90;;
59169;SDS011;52474;52.236;5.114;2023-09-07T11:23:02;9.98;;;9.38;;
59169;SDS011;52474;52.236;5.114;2023-09-07T11:25:35;9.18;;;8.57;;
59169;SDS011;52474;52.236;5.114;2023-09-07T11:28:08;11.10;;;10.38;;
59169;SDS011;52474;52.236;5.114;2023-09-07T11:30:34;11.18;;;10.35;;
59169;SDS011;52474;52.236;5.114;2023-09-07T11:33:01;10.00;;;9.40;;
59169;SDS011;52474;52.236;5.114;2023-09-07T11:35:30;11.93;;;11.23;;
59169;SDS011;52474;52.236;5.114;2023-09-07T11:37:56;10.73;;;9.70;;
59169;SDS011;52474;52.236;5.114;2023-09-07T11:40:25;11.30;;;10.60;;
59169;SDS011;52474;52.236;5.114;2023-09-07T11:42:50;11.82;;;10.85;;
59169;SDS011;52474;52.236;5.114;2023-09-07T11:45:16;9.85;;;9.23;;
59169;SDS011;52474;52.236;5.114;2023-09-07T11:47:43;10.55;;;9.82;;
59169;SDS011;52474;52.236;5.114;2023-09-07T11:50:09;9.98;;;9.18;;
59169;SDS011;52474;52.236;5.114;2023-09-07T11:52:35;10.27;;;9.68;;
59169;SDS011;52474;52.236;5.114;2023-09-07T11:55:01;10.05;;;9.45;;
59169;SDS011;52474;52.236;5.114;2023-09-07T11:57:28;11.73;;;11.00;;
59169;SDS011;52474;52.236;5.114;2023-09-07T11:59:54;10.30;;;9.60;;
59169;SDS011;52474;52.236;5.114;2023-09-07T12:02:20;9.65;;;9.05;;
59169;SDS011;52474;52.236;5.114;2023-09-07T12:04:47;11.25;;;10.35;;
59169;SDS011;52474;52.236;5.114;2023-09-07T12:07:13;11.73;;;10.63;;
59169;SDS011;52474;52.236;5.114;2023-09-07T12:09:40;11.70;;;11.10;;
59169;SDS011;52474;52.236;5.114;2023-09-07T12:12:05;11.30;;;10.60;;
59169;SDS011;52474;52.236;5.114;2023-09-07T12:14:31;10.30;;;9.63;;
59169;SDS011;52474;52.236;5.114;2023-09-07T12:16:57;10.70;;;10.00;;
59169;SDS011;52474;52.236;5.114;2023-09-07T12:19:23;10.65;;;9.95;;
59169;SDS011;52474;52.236;5.114;2023-09-07T12:21:50;12.27;;;11.65;;
59169;SDS011;52474;52.236;5.114;2023-09-07T12:24:16;13.73;;;12.73;;
59169;SDS011;52474;52.236;5.114;2023-09-07T12:26:42;12.32;;;11.50;;
59169;SDS011;52474;52.236;5.114;2023-09-07T12:29:08;12.07;;;11.25;;
59169;SDS011;52474;52.236;5.114;2023-09-07T12:31:34;13.80;;;12.85;;
59169;SDS011;52474;52.236;5.114;2023-09-07T12:33:59;11.82;;;10.98;;
59169;SDS011;52474;52.236;5.114;2023-09-07T12:36:25;11.05;;;10.45;;
59169;SDS011;52474;52.236;5.114;2023-09-07T12:38:55;11.23;;;10.63;;
59169;SDS011;52474;52.236;5.114;2023-09-07T12:41:29;10.98;;;10.38;;
59169;SDS011;52474;52.236;5.114;2023-09-07T12:43:56;10.50;;;9.80;;
59169;SDS011;52474;52.236;5.114;2023-09-07T12:46:21;11.25;;;10.45;;
59169;SDS011;52474;52.236;5.114;2023-09-07T12:48:47;9.77;;;9.07;;
59169;SDS011;52474;52.236;5.114;2023-09-07T12:51:13;8.90;;;8.15;;
59169;SDS011;52474;52.236;5.114;2023-09-07T12:53:38;9.35;;;8.60;;
59169;SDS011;52474;52.236;5.114;2023-09-07T12:56:05;9.73;;;9.13;;
59169;SDS011;52474;52.236;5.114;2023-09-07T12:58:30;9.43;;;8.73;;
59169;SDS011;52474;52.236;5.114;2023-09-07T13:00:56;10.02;;;9.23;;
59169;SDS011;52474;52.236;5.114;2023-09-07T13:03:22;10.00;;;9.30;;
59169;SDS011;52474;52.236;5.114;2023-09-07T13:05:47;9.70;;;9.10;;
59169;SDS011;52474;52.236;5.114;2023-09-07T13:08:13;10.13;;;9.13;;
59169;SDS011;52474;52.236;5.114;2023-09-07T13:10:39;9.90;;;9.10;;
59169;SDS011;52474;52.236;5.114;2023-09-07T13:13:05;9.07;;;7.45;;
59169;SDS011;52474;52.236;5.114;2023-09-07T13:15:32;7.82;;;7.20;;
59169;SDS011;52474;52.236;5.114;2023-09-07T13:17:57;10.13;;;9.13;;
59169;SDS011;52474;52.236;5.114;2023-09-07T13:20:23;7.97;;;7.38;;
59169;SDS011;52474;52.236;5.114;2023-09-07T13:22:48;8.80;;;8.07;;
59169;SDS011;52474;52.236;5.114;2023-09-07T13:25:14;8.40;;;7.65;;
59169;SDS011;52474;52.236;5.114;2023-09-07T13:27:40;8.98;;;8.23;;
59169;SDS011;52474;52.236;5.114;2023-09-07T13:30:06;10.48;;;9.40;;
59169;SDS011;52474;52.236;5.114;2023-09-07T13:32:33;9.93;;;9.32;;
59169;SDS011;52474;52.236;5.114;2023-09-07T13:34:59;8.13;;;7.40;;
59169;SDS011;52474;52.236;5.114;2023-09-07T13:37:25;7.95;;;7.28;;
59169;SDS011;52474;52.236;5.114;2023-09-07T13:39:51;9.13;;;8.40;;
59169;SDS011;52474;52.236;5.114;2023-09-07T13:42:17;7.97;;;7.38;;
59169;SDS011;52474;52.236;5.114;2023-09-07T13:44:42;7.82;;;7.13;;
59169;SDS011;52474;52.236;5.114;2023-09-07T13:47:11;7.47;;;6.88;;
59169;SDS011;52474;52.236;5.114;2023-09-07T13:49:36;9.10;;;8.35;;
59169;SDS011;52474;52.236;5.114;2023-09-07T13:52:02;8.15;;;7.45;;
59169;SDS011;52474;52.236;5.114;2023-09-07T13:54:28;7.32;;;6.82;;
59169;SDS011;52474;52.236;5.114;2023-09-07T13:56:54;8.00;;;7.40;;
59169;SDS011;52474;52.236;5.114;2023-09-07T13:59:19;7.32;;;6.82;;
59169;SDS011;52474;52.236;5.114;2023-09-07T14:01:45;7.80;;;7.30;;
59169;SDS011;52474;52.236;5.114;2023-09-07T14:04:11;8.30;;;7.45;;
59169;SDS011;52474;52.236;5.114;2023-09-07T14:06:36;7.68;;;7.07;;
59169;SDS011;52474;52.236;5.114;2023-09-07T14:09:02;8.07;;;7.47;;
59169;SDS011;52474;52.236;5.114;2023-09-07T14:11:28;6.72;;;6.15;;
59169;SDS011;52474;52.236;5.114;2023-09-07T14:13:53;7.63;;;6.93;;
59169;SDS011;52474;52.236;5.114;2023-09-07T14:16:20;7.70;;;7.20;;
59169;SDS011;52474;52.236;5.114;2023-09-07T14:18:46;7.80;;;7.20;;
59169;SDS011;52474;52.236;5.114;2023-09-07T14:21:15;8.18;;;7.50;;
59169;SDS011;52474;52.236;5.114;2023-09-07T14:23:42;7.18;;;6.57;;
59169;SDS011;52474;52.236;5.114;2023-09-07T14:26:08;7.93;;;7.28;;
59169;SDS011;52474;52.236;5.114;2023-09-07T14:28:34;7.65;;;7.05;;
59169;SDS011;52474;52.236;5.114;2023-09-07T14:31:00;7.47;;;7.00;;
59169;SDS011;52474;52.236;5.114;2023-09-07T14:33:29;7.80;;;7.10;;
59169;SDS011;52474;52.236;5.114;2023-09-07T14:35:55;7.93;;;7.30;;
59169;SDS011;52474;52.236;5.114;2023-09-07T14:38:21;7.82;;;7.30;;
59169;SDS011;52474;52.236;5.114;2023-09-07T14:40:48;7.85;;;6.78;;
59169;SDS011;52474;52.236;5.114;2023-09-07T14:43:16;8.07;;;7.38;;
59169;SDS011;52474;52.236;5.114;2023-09-07T14:45:43;8.27;;;7.57;;